Time;durP1;ratioP1;P1;durP2;ratioP2;P2;SDS_P1;SDS_P2;PMS_P1;PMS_P2;Temp;Humidity;BMP_temperature;BMP_pressure;BME280_temperature;BME280_humidity;BME280_pressure;Samples;Min_cycle;Max_cycle;Signal;HPM_P1;HPM_P2
2023/05/15 00:00:12;;;;;;;71.32;31.75;;;11.20;99.90;;;;;;5054856;28;20032;-76
2023/05/15 00:02:38;;;;;;;49.00;31.77;;;11.20;99.90;;;;;;5049729;28;20036;-76
2023/05/15 00:05:05;;;;;;;48.42;29.55;;;11.20;99.90;;;;;;5057615;28;20113;-76
2023/05/15 00:07:31;;;;;;;49.75;28.60;;;11.30;99.90;;;;;;5069576;28;20036;-76
2023/05/15 00:09:57;;;;;;;45.50;27.92;;;11.30;99.90;;;;;;5063236;28;20524;-76
2023/05/15 00:12:22;;;;;;;44.90;28.30;;;11.30;99.90;;;;;;5059934;28;20036;-76
2023/05/15 00:14:48;;;;;;;41.75;26.55;;;11.20;99.90;;;;;;5057744;28;20406;-76
2023/05/15 00:17:14;;;;;;;68.30;29.90;;;11.20;99.90;;;;;;5051434;28;20642;-76
2023/05/15 00:19:39;;;;;;;50.58;29.15;;;11.20;99.90;;;;;;5035913;28;20040;-76
2023/05/15 00:22:05;;;;;;;44.40;28.80;;;11.10;99.90;;;;;;5043511;28;20093;-76
2023/05/15 00:24:31;;;;;;;46.63;29.83;;;11.00;99.90;;;;;;5069563;28;20128;-76
2023/05/15 00:26:58;;;;;;;47.58;29.38;;;11.00;99.90;;;;;;5061098;28;20079;-76
2023/05/15 00:29:24;;;;;;;47.03;29.35;;;11.00;99.90;;;;;;5038840;28;20458;-76
2023/05/15 00:31:50;;;;;;;65.10;30.40;;;11.00;99.90;;;;;;5056411;28;20382;-76
2023/05/15 00:34:15;;;;;;;48.13;29.75;;;10.90;99.90;;;;;;5060887;28;20031;-76
2023/05/15 00:36:41;;;;;;;52.97;30.58;;;10.90;99.90;;;;;;5039680;28;20063;-76
2023/05/15 00:39:07;;;;;;;62.05;28.70;;;10.80;99.90;;;;;;5063717;28;20032;-76
2023/05/15 00:41:33;;;;;;;52.63;31.85;;;10.90;99.90;;;;;;5044513;28;20048;-76
2023/05/15 00:44:01;;;;;;;74.80;31.55;;;10.90;99.90;;;;;;5056895;28;20041;-76
2023/05/15 00:46:29;;;;;;;59.00;30.58;;;10.90;99.90;;;;;;5040649;28;20523;-76
2023/05/15 00:48:56;;;;;;;136.30;33.58;;;10.80;99.90;;;;;;5056860;28;20071;-76
2023/05/15 00:51:22;;;;;;;58.83;30.10;;;10.80;99.90;;;;;;5050960;28;20048;-76
2023/05/15 00:53:51;;;;;;;47.67;30.17;;;10.70;99.90;;;;;;5056382;28;20044;-76
2023/05/15 00:56:17;;;;;;;51.80;30.38;;;10.70;99.90;;;;;;5064062;28;20048;-76
2023/05/15 00:58:45;;;;;;;54.80;31.98;;;10.70;99.90;;;;;;5052235;28;20482;-76
2023/05/15 01:01:12;;;;;;;51.95;31.63;;;10.70;99.90;;;;;;5054140;28;20043;-76
2023/05/15 01:03:38;;;;;;;51.35;30.80;;;10.70;99.90;;;;;;5057704;28;20127;-76
2023/05/15 01:06:04;;;;;;;52.47;32.00;;;10.70;99.90;;;;;;5052771;28;20120;-76
2023/05/15 01:08:44;;;;;;;53.83;31.88;;;10.70;99.90;;;;;;5057107;28;20044;-76
2023/05/15 01:11:12;;;;;;;55.65;32.15;;;10.70;99.90;;;;;;5047682;28;20040;-76
2023/05/15 01:13:39;;;;;;;61.42;33.45;;;10.70;99.90;;;;;;5055174;28;20120;-76
2023/05/15 01:16:05;;;;;;;55.03;32.38;;;10.70;99.90;;;;;;5054366;28;20135;-76
2023/05/15 01:18:31;;;;;;;53.47;33.55;;;10.70;99.90;;;;;;5052560;28;20116;-76
2023/05/15 01:21:10;;;;;;;52.08;32.53;;;10.80;99.90;;;;;;5049893;28;20036;-76
2023/05/15 01:23:51;;;;;;;50.63;31.67;;;10.80;99.90;;;;;;5051338;28;20055;-76
2023/05/15 01:26:28;;;;;;;50.25;31.02;;;10.90;99.90;;;;;;5069369;28;20497;-76
2023/05/15 01:29:03;;;;;;;53.85;33.20;;;10.90;99.90;;;;;;5056972;28;20044;-76
2023/05/15 01:31:33;;;;;;;52.70;31.67;;;10.90;99.90;;;;;;5034731;28;20074;-76
2023/05/15 01:34:02;;;;;;;52.42;32.67;;;10.90;99.90;;;;;;5053273;28;20051;-76
2023/05/15 01:36:41;;;;;;;46.90;31.15;;;10.90;99.90;;;;;;5040451;28;20040;-76
2023/05/15 01:39:09;;;;;;;54.38;34.20;;;10.90;99.90;;;;;;5044595;28;20048;-76
2023/05/15 01:41:43;;;;;;;54.70;33.90;;;10.80;99.90;;;;;;5048293;28;20474;-76
2023/05/15 01:44:27;;;;;;;48.55;32.00;;;10.80;99.90;;;;;;5053492;28;20043;-76
2023/05/15 01:46:57;;;;;;;54.92;33.92;;;10.80;99.90;;;;;;5056828;28;20044;-76
2023/05/15 01:49:26;;;;;;;51.42;30.92;;;10.70;99.90;;;;;;5059822;28;20688;-76
2023/05/15 01:52:05;;;;;;;51.38;31.83;;;10.70;99.90;;;;;;5057103;28;20058;-76
2023/05/15 01:54:33;;;;;;;57.28;31.50;;;10.70;99.90;;;;;;5040371;28;20398;-76
2023/05/15 01:56:59;;;;;;;55.28;32.15;;;10.60;99.90;;;;;;5053195;28;20550;-76
2023/05/15 01:59:26;;;;;;;67.55;32.50;;;10.60;99.90;;;;;;5049081;28;20040;-76
2023/05/15 02:01:52;;;;;;;46.10;30.02;;;10.60;99.90;;;;;;5052794;28;20044;-76
2023/05/15 02:04:19;;;;;;;55.00;30.60;;;10.60;99.90;;;;;;5047390;28;20037;-76
2023/05/15 02:06:46;;;;;;;49.67;29.63;;;10.60;99.90;;;;;;5054141;28;20044;-76
2023/05/15 02:09:13;;;;;;;65.05;33.47;;;10.50;99.90;;;;;;5050180;28;20082;-76
2023/05/15 02:11:39;;;;;;;64.43;32.78;;;10.50;99.90;;;;;;5049745;28;20142;-76
2023/05/15 02:14:06;;;;;;;134.13;35.95;;;10.50;99.90;;;;;;5053119;28;20342;-76
2023/05/15 02:16:32;;;;;;;53.70;30.25;;;10.50;99.90;;;;;;5056335;28;20503;-76
2023/05/15 02:18:57;;;;;;;57.42;28.70;;;10.40;99.90;;;;;;5046862;28;20072;-76
2023/05/15 02:21:23;;;;;;;65.88;28.83;;;10.40;99.90;;;;;;5053626;28;20047;-76
2023/05/15 02:23:49;;;;;;;149.93;28.25;;;10.40;99.90;;;;;;5052428;28;20033;-76
2023/05/15 02:26:33;;;;;;;190.85;29.85;;;10.40;99.90;;;;;;5046169;28;20036;-76
2023/05/15 02:29:20;;;;;;;134.00;27.38;;;10.40;99.90;;;;;;5054963;28;20396;-76
2023/05/15 02:32:05;;;;;;;147.95;29.83;;;10.30;99.90;;;;;;5056992;28;20109;-76
2023/05/15 02:34:36;;;;;;;101.65;28.67;;;10.20;99.90;;;;;;5051142;28;21076;-76
2023/05/15 02:37:06;;;;;;;41.15;25.75;;;10.20;99.90;;;;;;5052419;28;20055;-76
2023/05/15 02:39:33;;;;;;;48.85;25.60;;;10.20;99.90;;;;;;5052787;28;20036;-76
2023/05/15 02:42:00;;;;;;;68.55;29.65;;;10.20;99.90;;;;;;5038268;28;20039;-76
2023/05/15 02:44:27;;;;;;;46.38;26.42;;;10.30;99.90;;;;;;5060438;28;20047;-76
2023/05/15 02:46:53;;;;;;;118.57;32.72;;;10.30;99.90;;;;;;5065612;28;20135;-76
2023/05/15 02:49:20;;;;;;;112.28;32.47;;;10.30;99.90;;;;;;5056318;28;20102;-76
2023/05/15 02:51:46;;;;;;;248.82;36.10;;;10.20;99.90;;;;;;5038159;28;20044;-76
2023/05/15 02:54:12;;;;;;;119.85;31.20;;;10.20;99.90;;;;;;5051818;28;20502;-76
2023/05/15 02:56:38;;;;;;;161.32;33.65;;;10.10;99.90;;;;;;5053890;28;20057;-76
2023/05/15 02:59:04;;;;;;;148.05;35.75;;;10.10;99.90;;;;;;5057780;28;20063;-76
2023/05/15 03:01:30;;;;;;;113.50;33.35;;;10.10;99.90;;;;;;5047370;28;20028;-76
2023/05/15 03:03:56;;;;;;;59.22;31.05;;;10.10;99.90;;;;;;5043978;28;20090;-76
2023/05/15 03:06:21;;;;;;;54.22;31.38;;;10.10;99.90;;;;;;5046382;28;20058;-76
2023/05/15 03:08:47;;;;;;;126.45;36.35;;;10.10;99.90;;;;;;5036157;28;20127;-76
2023/05/15 03:11:13;;;;;;;274.13;40.30;;;10.20;99.90;;;;;;5048677;28;20035;-76
2023/05/15 03:13:38;;;;;;;120.55;37.58;;;10.10;99.90;;;;;;5043818;28;20617;-76
2023/05/15 03:16:04;;;;;;;58.47;31.17;;;10.10;99.90;;;;;;5044882;28;20095;-76
2023/05/15 03:18:30;;;;;;;60.47;29.17;;;10.00;99.90;;;;;;5071734;28;20037;-76
2023/05/15 03:20:56;;;;;;;73.60;31.40;;;10.00;99.90;;;;;;5063329;28;20060;-76
2023/05/15 03:23:22;;;;;;;58.83;31.02;;;10.00;99.90;;;;;;5047859;28;20509;-76
2023/05/15 03:25:47;;;;;;;66.00;29.85;;;10.00;99.90;;;;;;5070289;28;20147;-76
2023/05/15 03:28:13;;;;;;;61.38;30.17;;;10.00;99.90;;;;;;5053983;28;20057;-76
2023/05/15 03:30:39;;;;;;;53.72;29.52;;;10.00;99.90;;;;;;5049055;28;20502;-76
2023/05/15 03:33:05;;;;;;;77.43;31.38;;;10.00;99.90;;;;;;5045479;28;20048;-76
2023/05/15 03:35:34;;;;;;;100.15;31.08;;;10.00;99.90;;;;;;5073841;28;20119;-76
2023/05/15 03:38:00;;;;;;;47.53;26.98;;;9.90;99.90;;;;;;5046600;28;20479;-76
2023/05/15 03:40:26;;;;;;;85.28;26.25;;;9.80;99.90;;;;;;5047945;28;20095;-76
2023/05/15 03:42:52;;;;;;;97.35;27.17;;;9.60;99.90;;;;;;5032677;28;20052;-76
2023/05/15 03:45:18;;;;;;;48.67;25.85;;;9.50;99.90;;;;;;5058508;28;20391;-76
2023/05/15 03:47:44;;;;;;;58.47;28.13;;;9.40;99.90;;;;;;5065991;28;20053;-76
2023/05/15 03:50:10;;;;;;;113.03;31.42;;;9.50;99.90;;;;;;5042717;28;20105;-76
2023/05/15 03:52:36;;;;;;;70.55;28.90;;;9.50;99.90;;;;;;5048280;28;20095;-76
2023/05/15 03:55:02;;;;;;;74.38;26.75;;;9.40;99.90;;;;;;5056366;28;20044;-76
2023/05/15 03:57:28;;;;;;;54.05;25.02;;;9.40;99.90;;;;;;5043427;28;20056;-76
2023/05/15 03:59:54;;;;;;;41.22;24.13;;;9.30;99.90;;;;;;5045334;28;20367;-76
2023/05/15 04:02:19;;;;;;;41.83;22.35;;;9.30;99.90;;;;;;5043264;28;20109;-76
2023/05/15 04:04:45;;;;;;;44.88;22.20;;;9.40;99.90;;;;;;5050526;28;20041;-76
2023/05/15 04:07:11;;;;;;;39.85;22.45;;;9.40;99.90;;;;;;5041605;28;20032;-76
2023/05/15 04:09:37;;;;;;;33.72;19.50;;;9.40;99.90;;;;;;5029982;28;20046;-76
2023/05/15 04:12:03;;;;;;;38.95;21.20;;;9.40;99.90;;;;;;5046370;28;20036;-76
2023/05/15 04:14:29;;;;;;;42.38;21.55;;;9.30;99.90;;;;;;5046894;28;20486;-76
2023/05/15 04:16:54;;;;;;;34.90;20.98;;;9.30;99.90;;;;;;5046500;28;20040;-76
2023/05/15 04:19:20;;;;;;;37.20;21.55;;;9.40;99.90;;;;;;5049625;28;20551;-76
2023/05/15 04:21:46;;;;;;;31.20;20.38;;;9.40;99.90;;;;;;5049968;28;20048;-76
2023/05/15 04:24:11;;;;;;;35.05;22.02;;;9.40;99.90;;;;;;5051219;28;20536;-76
2023/05/15 04:26:37;;;;;;;38.42;23.33;;;9.50;99.90;;;;;;5044497;28;20037;-76
2023/05/15 04:29:03;;;;;;;38.65;24.05;;;9.50;99.90;;;;;;5056506;28;20371;-76
2023/05/15 04:31:30;;;;;;;38.38;26.10;;;9.60;99.90;;;;;;5054053;28;20474;-76
2023/05/15 04:33:55;;;;;;;42.30;28.05;;;9.60;99.90;;;;;;5053434;28;20227;-76
2023/05/15 04:36:21;;;;;;;42.20;29.48;;;9.70;99.90;;;;;;5044408;28;20565;-76
2023/05/15 04:38:47;;;;;;;44.22;29.35;;;9.70;99.90;;;;;;5057071;28;20036;-76
2023/05/15 04:41:13;;;;;;;43.90;30.42;;;9.80;99.90;;;;;;5051380;28;20513;-76
2023/05/15 04:43:38;;;;;;;41.95;30.75;;;9.80;99.90;;;;;;5041869;28;20148;-76
2023/05/15 04:46:04;;;;;;;41.75;30.58;;;9.90;99.90;;;;;;5055175;28;20037;-76
2023/05/15 04:48:30;;;;;;;38.05;28.00;;;9.90;99.90;;;;;;5048236;28;20036;-76
2023/05/15 04:50:56;;;;;;;40.33;29.90;;;10.00;99.90;;;;;;5050412;28;20063;-77
2023/05/15 04:53:21;;;;;;;37.20;28.05;;;10.10;99.90;;;;;;5051622;28;20564;-76
2023/05/15 04:55:50;;;;;;;38.47;26.45;;;10.10;99.90;;;;;;5051719;28;20049;-76
2023/05/15 04:58:16;;;;;;;33.95;23.70;;;10.10;99.90;;;;;;5067715;28;20458;-76
2023/05/15 05:00:42;;;;;;;29.98;21.67;;;10.20;99.90;;;;;;5042196;28;20036;-76
2023/05/15 05:03:07;;;;;;;29.05;21.90;;;10.20;99.90;;;;;;5049874;28;20413;-76
2023/05/15 05:05:33;;;;;;;29.58;20.23;;;10.30;99.90;;;;;;5034983;28;20116;-76
2023/05/15 05:07:59;;;;;;;26.17;19.58;;;10.30;99.90;;;;;;5043425;28;20112;-76
2023/05/15 05:10:24;;;;;;;26.20;18.80;;;10.30;99.90;;;;;;5052099;28;20037;-76
2023/05/15 05:12:50;;;;;;;25.10;18.77;;;10.30;99.90;;;;;;5053937;28;21534;-76
2023/05/15 05:15:16;;;;;;;24.48;17.60;;;10.30;99.90;;;;;;5055718;28;20495;-77
2023/05/15 05:17:41;;;;;;;21.90;17.23;;;10.30;99.90;;;;;;5059950;28;20053;-76
2023/05/15 05:20:08;;;;;;;23.58;17.95;;;10.30;99.90;;;;;;5042854;28;20033;-77
2023/05/15 05:22:33;;;;;;;22.17;16.90;;;10.40;99.90;;;;;;5041133;28;20037;-76
2023/05/15 05:25:00;;;;;;;25.05;18.17;;;10.50;99.90;;;;;;5041635;28;20052;-76
2023/05/15 05:27:26;;;;;;;21.92;16.63;;;10.60;99.90;;;;;;5048569;28;20041;-77
2023/05/15 05:29:53;;;;;;;24.02;17.85;;;11.80;99.90;;;;;;5059676;28;20044;-76
2023/05/15 05:32:18;;;;;;;24.50;17.70;;;10.80;99.90;;;;;;5027266;28;20452;-76
2023/05/15 05:34:44;;;;;;;23.40;16.50;;;10.90;99.90;;;;;;5048202;28;20028;-76
2023/05/15 05:37:10;;;;;;;24.27;17.60;;;11.00;99.90;;;;;;5040904;28;20032;-76
2023/05/15 05:39:35;;;;;;;23.38;17.58;;;11.10;99.90;;;;;;5039875;28;20040;-76
2023/05/15 05:42:01;;;;;;;22.85;17.33;;;11.20;99.90;;;;;;5041712;28;20494;-77
2023/05/15 05:44:27;;;;;;;23.50;16.98;;;11.20;99.90;;;;;;5048059;28;20044;-76
2023/05/15 05:46:52;;;;;;;26.40;18.42;;;11.20;99.90;;;;;;5049228;28;20060;-76
2023/05/15 05:49:18;;;;;;;27.05;19.40;;;11.20;99.90;;;;;;5027057;28;20037;-76
2023/05/15 05:51:45;;;;;;;23.75;17.85;;;11.40;99.90;;;;;;5047763;28;20417;-76
2023/05/15 05:54:11;;;;;;;23.00;17.48;;;11.30;99.90;;;;;;5038472;28;20040;-76
2023/05/15 05:56:37;;;;;;;25.25;19.23;;;11.30;99.90;;;;;;5042602;28;20052;-76
2023/05/15 05:59:02;;;;;;;28.33;18.75;;;11.40;99.90;;;;;;5058255;28;20072;-76
2023/05/15 06:01:28;;;;;;;25.23;18.63;;;11.40;99.90;;;;;;5050616;28;20036;-76
2023/05/15 06:03:54;;;;;;;24.60;17.63;;;11.40;99.90;;;;;;5026075;28;20045;-76
2023/05/15 06:06:21;;;;;;;23.30;18.80;;;11.40;99.90;;;;;;5034432;28;20119;-76
2023/05/15 06:08:46;;;;;;;27.33;19.10;;;11.40;99.90;;;;;;5042655;28;20134;-76
2023/05/15 06:11:12;;;;;;;26.08;19.73;;;11.50;99.90;;;;;;5031674;28;20041;-76
2023/05/15 06:13:38;;;;;;;25.20;18.73;;;11.70;99.90;;;;;;5052120;28;20037;-76
2023/05/15 06:16:04;;;;;;;26.63;20.17;;;11.80;99.90;;;;;;5044540;28;20079;-76
2023/05/15 06:18:30;;;;;;;24.70;19.25;;;11.90;99.90;;;;;;5047591;28;20040;-77
2023/05/15 06:20:57;;;;;;;23.38;17.58;;;12.00;99.90;;;;;;5045562;28;20548;-76
2023/05/15 06:23:23;;;;;;;21.52;16.05;;;12.00;99.90;;;;;;5040007;28;20033;-75
2023/05/15 06:25:49;;;;;;;23.90;16.90;;;11.90;99.90;;;;;;5047520;28;21360;-75
2023/05/15 06:28:14;;;;;;;21.77;16.40;;;11.80;99.90;;;;;;5046540;28;20121;-76
2023/05/15 06:30:40;;;;;;;23.17;16.45;;;11.80;99.90;;;;;;5031274;28;20123;-77
2023/05/15 06:33:06;;;;;;;22.92;17.13;;;11.80;99.90;;;;;;5055071;28;20036;-77
2023/05/15 06:35:31;;;;;;;22.48;16.70;;;11.80;99.90;;;;;;5036901;28;20391;-76
2023/05/15 06:37:57;;;;;;;20.20;15.73;;;12.00;99.90;;;;;;5064007;28;20047;-76
2023/05/15 06:40:23;;;;;;;22.15;16.23;;;12.20;99.90;;;;;;5040232;28;20098;-76
2023/05/15 06:42:48;;;;;;;22.48;15.73;;;12.40;99.90;;;;;;5050585;28;20052;-76
2023/05/15 06:45:14;;;;;;;21.85;16.33;;;12.50;99.90;;;;;;5037877;28;20037;-76
2023/05/15 06:47:40;;;;;;;23.40;15.32;;;12.60;99.90;;;;;;5043852;28;20036;-76
2023/05/15 06:50:06;;;;;;;20.95;13.70;;;12.70;99.90;;;;;;5054767;28;20519;-76
2023/05/15 06:52:32;;;;;;;19.15;14.02;;;12.70;99.90;;;;;;5048990;28;20268;-76
2023/05/15 06:54:57;;;;;;;18.33;13.95;;;12.70;99.90;;;;;;5034818;28;20522;-76
2023/05/15 06:57:23;;;;;;;20.77;14.50;;;12.70;99.90;;;;;;5041655;28;20044;-76
2023/05/15 06:59:49;;;;;;;19.38;13.13;;;12.90;99.90;;;;;;5042050;28;20446;-76
2023/05/15 07:02:14;;;;;;;18.10;12.65;;;13.00;99.90;;;;;;5050426;28;20468;-76
2023/05/15 07:04:40;;;;;;;17.50;11.88;;;13.20;99.90;;;;;;5037653;28;20339;-76
2023/05/15 07:07:06;;;;;;;17.95;12.40;;;13.40;99.90;;;;;;5040146;28;20419;-76
2023/05/15 07:09:32;;;;;;;19.20;11.93;;;13.60;99.90;;;;;;5048347;28;20041;-76
2023/05/15 07:11:57;;;;;;;15.82;11.75;;;12.40;99.90;;;;;;5017849;28;20053;-76
2023/05/15 07:14:23;;;;;;;20.17;12.55;;;13.70;99.90;;;;;;5059468;28;20048;-76
2023/05/15 07:16:49;;;;;;;17.63;11.25;;;13.80;99.90;;;;;;5058447;28;20043;-76
2023/05/15 07:19:19;;;;;;;16.63;11.77;;;13.70;99.90;;;;;;5040696;28;20032;-76
2023/05/15 07:21:45;;;;;;;15.13;11.07;;;13.70;99.90;;;;;;5049593;28;20123;-76
2023/05/15 07:24:11;;;;;;;16.40;11.55;;;13.90;99.90;;;;;;5047925;28;20138;-76
2023/05/15 07:26:37;;;;;;;16.58;10.93;;;14.10;99.90;;;;;;5052119;28;20079;-76
2023/05/15 07:29:02;;;;;;;16.38;11.60;;;13.90;99.90;;;;;;5038539;28;20516;-75
2023/05/15 07:31:30;;;;;;;15.80;10.93;;;13.70;99.90;;;;;;5056276;28;20116;-76
2023/05/15 07:33:56;;;;;;;16.10;10.70;;;13.60;99.90;;;;;;5041223;28;20120;-75
2023/05/15 07:36:21;;;;;;;17.48;12.15;;;13.70;99.90;;;;;;5040320;28;20119;-76
2023/05/15 07:38:47;;;;;;;15.77;11.43;;;13.70;99.90;;;;;;5025283;28;20120;-75
2023/05/15 07:41:13;;;;;;;14.18;9.65;;;13.60;99.90;;;;;;5040916;28;20120;-75
2023/05/15 07:43:38;;;;;;;15.00;9.82;;;13.60;99.90;;;;;;5043957;28;20510;-75
2023/05/15 07:46:04;;;;;;;15.10;9.68;;;13.60;99.90;;;;;;5045495;28;20058;-75
2023/05/15 07:48:30;;;;;;;15.10;10.25;;;13.70;99.90;;;;;;5054289;28;20044;-75
2023/05/15 07:50:56;;;;;;;14.85;10.68;;;13.80;99.90;;;;;;5053242;28;20036;-75
2023/05/15 07:53:21;;;;;;;15.98;10.65;;;14.10;99.90;;;;;;5066834;28;20033;-75
2023/05/15 07:55:47;;;;;;;14.13;9.93;;;14.20;99.90;;;;;;5081543;28;20505;-76
2023/05/15 07:58:13;;;;;;;16.08;9.45;;;14.40;99.90;;;;;;5040684;28;20406;-75
2023/05/15 08:00:39;;;;;;;13.82;9.35;;;14.50;99.90;;;;;;5071063;28;20043;-75
2023/05/15 08:03:05;;;;;;;14.68;9.90;;;14.60;99.90;;;;;;5054213;28;20041;-75
2023/05/15 08:05:31;;;;;;;12.45;8.82;;;14.70;99.90;;;;;;5047553;28;20047;-76
2023/05/15 08:07:56;;;;;;;13.25;8.98;;;14.70;99.90;;;;;;5070798;28;20044;-75
2023/05/15 08:10:23;;;;;;;13.52;9.23;;;14.80;99.90;;;;;;5044716;28;20128;-75
2023/05/15 08:12:49;;;;;;;13.85;8.65;;;14.80;99.90;;;;;;5050561;28;20095;-75
2023/05/15 08:15:15;;;;;;;14.20;9.18;;;14.80;99.90;;;;;;5042397;28;20090;-76
2023/05/15 08:17:42;;;;;;;14.07;9.43;;;14.80;99.90;;;;;;5064082;28;20117;-75
2023/05/15 08:20:08;;;;;;;17.45;8.70;;;14.80;99.90;;;;;;5070645;28;20041;-75
2023/05/15 08:22:34;;;;;;;15.75;8.32;;;14.70;99.90;;;;;;5070463;28;20120;-76
2023/05/15 08:25:02;;;;;;;17.33;8.88;;;14.70;99.90;;;;;;5066442;28;20140;-75
2023/05/15 08:27:28;;;;;;;14.07;8.43;;;14.80;99.90;;;;;;5064328;28;20052;-75
2023/05/15 08:29:54;;;;;;;13.18;7.82;;;14.80;99.90;;;;;;5053675;28;20094;-75
2023/05/15 08:32:21;;;;;;;12.95;8.05;;;14.90;99.90;;;;;;5037264;28;20052;-75
2023/05/15 08:34:46;;;;;;;14.68;8.57;;;15.00;99.90;;;;;;5070135;28;20502;-75
2023/05/15 08:37:12;;;;;;;13.20;8.65;;;15.00;99.90;;;;;;5065581;28;20036;-75
2023/05/15 08:39:38;;;;;;;14.02;8.43;;;15.00;99.90;;;;;;5070185;28;20402;-75
2023/05/15 08:42:09;;;;;;;15.63;8.57;;;15.00;99.90;;;;;;5045407;28;20048;-75
2023/05/15 08:44:36;;;;;;;13.20;8.60;;;15.00;99.90;;;;;;5069830;28;20593;-75
2023/05/15 08:47:03;;;;;;;14.65;7.85;;;15.00;99.90;;;;;;5059024;28;20514;-75
2023/05/15 08:49:41;;;;;;;14.75;9.13;;;15.10;99.90;;;;;;5066779;28;20045;-75
2023/05/15 08:52:08;;;;;;;12.40;8.15;;;15.20;99.90;;;;;;5046088;28;20052;-75
2023/05/15 08:54:34;;;;;;;13.65;8.32;;;15.30;99.90;;;;;;5036142;28;20032;-75
2023/05/15 08:57:01;;;;;;;12.25;8.25;;;15.40;99.90;;;;;;5047348;28;20087;-75
2023/05/15 08:59:28;;;;;;;12.32;8.38;;;15.20;99.90;;;;;;5051009;28;20112;-75
2023/05/15 09:01:54;;;;;;;13.70;8.40;;;15.20;99.90;;;;;;5070174;28;20037;-75
2023/05/15 09:04:20;;;;;;;13.25;9.20;;;15.20;99.90;;;;;;5069624;28;20280;-75
2023/05/15 09:06:46;;;;;;;14.90;9.70;;;15.20;99.90;;;;;;5069643;28;20037;-75
2023/05/15 09:09:12;;;;;;;13.18;8.90;;;15.30;99.90;;;;;;5066272;28;20134;-75
2023/05/15 09:11:47;;;;;;;14.90;9.52;;;15.30;99.90;;;;;;5069854;28;20071;-75
2023/05/15 09:14:13;;;;;;;13.60;8.88;;;15.40;99.90;;;;;;5069574;28;20678;-75
2023/05/15 09:16:39;;;;;;;17.52;9.38;;;15.40;99.90;;;;;;5053213;28;20037;-75
2023/05/15 09:19:06;;;;;;;14.23;8.90;;;15.50;99.90;;;;;;5057265;28;20155;-75
2023/05/15 09:21:32;;;;;;;13.15;8.55;;;15.70;99.90;;;;;;5052693;28;20040;-75
2023/05/15 09:24:15;;;;;;;14.75;8.35;;;15.70;99.90;;;;;;5069373;28;20490;-75
2023/05/15 09:26:42;;;;;;;14.50;9.27;;;15.70;99.90;;;;;;5052926;28;20063;-75
2023/05/15 09:29:08;;;;;;;14.68;9.45;;;15.70;99.90;;;;;;5062281;28;20502;-75
2023/05/15 09:31:34;;;;;;;16.10;10.30;;;15.70;99.90;;;;;;5052921;28;20044;-75
2023/05/15 09:34:03;;;;;;;14.90;10.20;;;15.80;99.90;;;;;;5069102;28;20048;-75
2023/05/15 09:36:29;;;;;;;13.25;9.00;;;15.90;99.90;;;;;;5069065;28;20494;-75
2023/05/15 09:38:59;;;;;;;15.23;10.15;;;15.90;99.90;;;;;;5065945;28;20032;-75
2023/05/15 09:41:26;;;;;;;15.27;8.43;;;16.00;99.90;;;;;;5057879;28;20032;-75
2023/05/15 09:43:55;;;;;;;14.77;9.27;;;16.20;99.90;;;;;;5052623;28;20052;-75
2023/05/15 09:46:21;;;;;;;15.45;9.50;;;16.10;99.90;;;;;;5069020;28;20076;-75
2023/05/15 09:48:47;;;;;;;14.15;9.77;;;16.10;99.90;;;;;;5068843;28;20087;-75
2023/05/15 09:51:15;;;;;;;14.40;10.15;;;16.20;99.90;;;;;;5063071;28;20064;-75
2023/05/15 09:53:41;;;;;;;16.48;10.15;;;16.20;99.90;;;;;;5063068;28;20045;-75
2023/05/15 09:56:09;;;;;;;16.25;10.35;;;16.30;99.90;;;;;;5051018;28;20052;-75
2023/05/15 09:58:35;;;;;;;14.23;9.77;;;16.30;99.90;;;;;;5068746;28;20040;-75
2023/05/15 10:01:02;;;;;;;14.63;9.90;;;16.40;99.90;;;;;;5047289;28;20048;-75
2023/05/15 10:03:28;;;;;;;15.45;9.10;;;16.30;99.90;;;;;;5068547;28;20047;-75
2023/05/15 10:06:02;;;;;;;12.95;9.07;;;16.30;99.90;;;;;;5051769;28;20040;-75
2023/05/15 10:08:28;;;;;;;15.52;9.70;;;16.20;99.90;;;;;;5068227;28;20122;-75
2023/05/15 10:10:58;;;;;;;14.32;9.10;;;16.40;99.90;;;;;;5045552;28;20041;-75
2023/05/15 10:13:24;;;;;;;13.95;9.00;;;16.50;99.90;;;;;;5061336;28;20037;-75
2023/05/15 10:15:51;;;;;;;14.50;8.93;;;16.60;99.90;;;;;;5048389;28;20060;-75
2023/05/15 10:18:20;;;;;;;13.10;8.80;;;16.60;99.90;;;;;;5047349;28;20041;-75
2023/05/15 10:20:46;;;;;;;12.98;7.65;;;16.80;99.90;;;;;;5064168;28;20037;-75
2023/05/15 10:23:16;;;;;;;13.18;8.50;;;16.90;99.90;;;;;;5040505;28;20095;-75
2023/05/15 10:25:54;;;;;;;12.98;8.48;;;17.10;99.90;;;;;;5065178;28;20055;-75
2023/05/15 10:28:21;;;;;;;13.02;8.80;;;17.30;99.90;;;;;;5052648;28;20037;-75
2023/05/15 10:30:47;;;;;;;14.40;8.13;;;17.20;99.90;;;;;;5067554;28;20105;-75
2023/05/15 10:33:14;;;;;;;12.65;7.40;;;17.30;99.90;;;;;;5068338;28;20044;-75
2023/05/15 10:35:41;;;;;;;12.32;7.03;;;17.40;99.90;;;;;;5068278;28;20098;-75
2023/05/15 10:38:08;;;;;;;13.45;6.93;;;17.50;99.90;;;;;;5065356;28;20494;-75
2023/05/15 10:40:38;;;;;;;14.57;7.47;;;17.50;99.90;;;;;;5064498;28;20032;-76
2023/05/15 10:43:05;;;;;;;13.93;7.10;;;17.40;99.90;;;;;;5051520;28;20504;-76
2023/05/15 10:45:32;;;;;;;10.70;6.25;;;17.50;99.90;;;;;;5067827;28;20048;-75
2023/05/15 10:48:00;;;;;;;12.50;6.53;;;17.40;99.90;;;;;;5068129;28;20049;-76
2023/05/15 10:50:26;;;;;;;10.55;6.13;;;17.40;99.90;;;;;;5053473;28;20045;-76
2023/05/15 10:52:52;;;;;;;11.23;6.72;;;17.40;99.90;;;;;;5084695;28;20052;-75
2023/05/15 10:55:19;;;;;;;11.02;6.53;;;17.50;99.90;;;;;;5066137;28;20138;-76
2023/05/15 10:57:46;;;;;;;12.18;7.13;;;17.50;99.90;;;;;;5054854;28;20051;-75
2023/05/15 11:00:21;;;;;;;14.60;6.97;;;17.50;99.90;;;;;;5067917;28;20044;-75
2023/05/15 11:02:47;;;;;;;12.13;6.47;;;17.20;99.90;;;;;;5071264;28;20140;-75
2023/05/15 11:05:13;;;;;;;10.70;6.50;;;16.20;99.90;;;;;;5036625;28;20039;-75
2023/05/15 11:07:39;;;;;;;17.55;7.60;;;17.00;99.90;;;;;;5051236;28;20521;-75
2023/05/15 11:10:27;;;;;;;12.00;7.22;;;17.10;99.90;;;;;;5046271;28;20701;-76
2023/05/15 11:12:57;;;;;;;11.50;7.65;;;17.30;99.90;;;;;;5070937;28;20043;-75
2023/05/15 11:15:23;;;;;;;13.85;7.22;;;17.30;99.90;;;;;;5070810;28;20035;-75
2023/05/15 11:18:07;;;;;;;14.70;7.55;;;17.50;99.90;;;;;;5051772;28;20085;-76
2023/05/15 11:20:53;;;;;;;11.18;6.57;;;17.60;99.90;;;;;;5070027;28;20105;-75
2023/05/15 11:23:24;;;;;;;14.20;7.57;;;17.70;99.90;;;;;;5070914;28;20451;-75
2023/05/15 11:25:55;;;;;;;11.10;7.13;;;17.80;99.90;;;;;;5075176;28;20048;-75
2023/05/15 11:28:23;;;;;;;12.48;7.35;;;17.90;99.90;;;;;;5065745;28;20040;-76
2023/05/15 11:30:58;;;;;;;12.00;6.82;;;17.90;99.90;;;;;;5072751;28;20123;-76
2023/05/15 11:33:28;;;;;;;11.60;6.35;;;18.00;99.90;;;;;;5067617;28;20040;-76
2023/05/15 11:35:58;;;;;;;13.55;6.75;;;18.20;99.90;;;;;;5074785;28;20074;-75
2023/05/15 11:38:25;;;;;;;12.10;7.60;;;18.30;99.90;;;;;;5057293;28;20270;-75
2023/05/15 11:41:01;;;;;;;11.38;6.97;;;18.20;99.90;;;;;;5074602;28;20068;-76
2023/05/15 11:43:34;;;;;;;13.10;7.85;;;17.80;99.90;;;;;;5071445;28;20073;-76
2023/05/15 11:46:08;;;;;;;12.38;8.02;;;17.60;99.90;;;;;;5054566;28;20528;-75
2023/05/15 11:48:42;;;;;;;12.50;7.30;;;17.60;99.90;;;;;;5072294;28;20435;-75
2023/05/15 11:51:28;;;;;;;14.63;8.30;;;17.70;99.90;;;;;;5074431;28;20619;-75
2023/05/15 11:53:55;;;;;;;14.10;7.55;;;17.60;99.90;;;;;;5056403;28;20513;-76
2023/05/15 11:56:23;;;;;;;11.73;7.55;;;17.50;99.90;;;;;;5074102;28;20505;-75
2023/05/15 11:58:51;;;;;;;12.00;7.30;;;17.50;99.90;;;;;;5054505;28;20036;-76
2023/05/15 12:01:17;;;;;;;12.10;7.50;;;17.20;99.90;;;;;;5060299;28;20036;-76
2023/05/15 12:03:47;;;;;;;11.90;7.40;;;17.10;99.90;;;;;;5067158;28;20150;-75
2023/05/15 12:06:13;;;;;;;12.07;7.90;;;17.00;99.90;;;;;;5053953;28;20525;-75
2023/05/15 12:08:40;;;;;;;11.23;7.72;;;16.80;99.90;;;;;;5072026;28;20051;-75
2023/05/15 12:11:06;;;;;;;13.15;8.32;;;16.70;99.90;;;;;;5057345;28;20040;-75
2023/05/15 12:13:33;;;;;;;12.77;7.50;;;16.60;99.90;;;;;;5056404;28;20036;-76
2023/05/15 12:16:00;;;;;;;12.40;7.63;;;16.50;99.90;;;;;;5054584;28;20070;-75
2023/05/15 12:18:26;;;;;;;12.32;7.55;;;16.40;99.90;;;;;;5061787;28;20119;-76
2023/05/15 12:20:52;;;;;;;12.25;7.80;;;16.40;99.90;;;;;;5074277;28;20127;-75
2023/05/15 12:23:21;;;;;;;12.98;8.20;;;16.30;99.90;;;;;;5073585;28;20112;-76
2023/05/15 12:25:49;;;;;;;14.52;8.10;;;16.40;99.90;;;;;;5060488;28;20097;-75
2023/05/15 12:28:15;;;;;;;12.45;7.70;;;16.40;99.90;;;;;;5069886;28;20044;-75
2023/05/15 12:30:41;;;;;;;12.23;8.20;;;16.40;99.90;;;;;;5052813;28;20067;-75